sensor_id;sensor_type;location;lat;lon;timestamp;temperature;humidity
3298;DHT22;1661;53.572;10.174;2023-08-17T00:00:24;20.10;77.20
3298;DHT22;1661;53.572;10.174;2023-08-17T00:02:51;20.10;77.00
3298;DHT22;1661;53.572;10.174;2023-08-17T00:05:18;20.10;77.10
3298;DHT22;1661;53.572;10.174;2023-08-17T00:07:45;20.10;76.70
3298;DHT22;1661;53.572;10.174;2023-08-17T00:10:12;20.10;76.60
3298;DHT22;1661;53.572;10.174;2023-08-17T00:12:39;20.00;76.70
3298;DHT22;1661;53.572;10.174;2023-08-17T00:15:07;20.00;76.60
3298;DHT22;1661;53.572;10.174;2023-08-17T00:17:34;20.00;76.50
3298;DHT22;1661;53.572;10.174;2023-08-17T00:20:01;20.00;76.60
3298;DHT22;1661;53.572;10.174;2023-08-17T00:22:30;19.90;76.10
3298;DHT22;1661;53.572;10.174;2023-08-17T00:24:57;19.90;76.00
3298;DHT22;1661;53.572;10.174;2023-08-17T00:27:24;19.80;76.50
3298;DHT22;1661;53.572;10.174;2023-08-17T00:29:50;19.80;76.60
3298;DHT22;1661;53.572;10.174;2023-08-17T00:32:18;19.80;76.20
3298;DHT22;1661;53.572;10.174;2023-08-17T00:34:45;19.70;76.40
3298;DHT22;1661;53.572;10.174;2023-08-17T00:37:12;19.70;76.40
3298;DHT22;1661;53.572;10.174;2023-08-17T00:39:39;19.70;76.30
3298;DHT22;1661;53.572;10.174;2023-08-17T00:42:06;19.70;76.60
3298;DHT22;1661;53.572;10.174;2023-08-17T00:44:33;19.70;76.70
3298;DHT22;1661;53.572;10.174;2023-08-17T00:47:00;19.60;76.80
3298;DHT22;1661;53.572;10.174;2023-08-17T00:49:28;19.60;77.10
3298;DHT22;1661;53.572;10.174;2023-08-17T00:51:56;19.60;77.30
3298;DHT22;1661;53.572;10.174;2023-08-17T00:54:24;19.50;76.80
3298;DHT22;1661;53.572;10.174;2023-08-17T00:56:52;19.50;76.90
3298;DHT22;1661;53.572;10.174;2023-08-17T00:59:19;19.50;76.90
3298;DHT22;1661;53.572;10.174;2023-08-17T01:01:46;19.40;77.50
3298;DHT22;1661;53.572;10.174;2023-08-17T01:04:14;19.40;77.70
3298;DHT22;1661;53.572;10.174;2023-08-17T01:06:42;19.40;77.90
3298;DHT22;1661;53.572;10.174;2023-08-17T01:09:09;19.40;77.80
3298;DHT22;1661;53.572;10.174;2023-08-17T01:11:39;19.40;77.60
3298;DHT22;1661;53.572;10.174;2023-08-17T01:14:12;19.40;77.70
3298;DHT22;1661;53.572;10.174;2023-08-17T01:16:50;19.40;77.60
3298;DHT22;1661;53.572;10.174;2023-08-17T01:19:25;19.30;77.60
3298;DHT22;1661;53.572;10.174;2023-08-17T01:21:59;19.30;77.50
3298;DHT22;1661;53.572;10.174;2023-08-17T01:24:28;19.30;77.60
3298;DHT22;1661;53.572;10.174;2023-08-17T01:26:54;19.30;77.50
3298;DHT22;1661;53.572;10.174;2023-08-17T01:29:22;19.20;77.40
3298;DHT22;1661;53.572;10.174;2023-08-17T01:31:52;19.20;77.50
3298;DHT22;1661;53.572;10.174;2023-08-17T01:34:22;19.20;77.30
3298;DHT22;1661;53.572;10.174;2023-08-17T01:36:53;19.20;77.30
3298;DHT22;1661;53.572;10.174;2023-08-17T01:39:23;19.20;77.20
3298;DHT22;1661;53.572;10.174;2023-08-17T01:41:55;19.20;77.20
3298;DHT22;1661;53.572;10.174;2023-08-17T01:44:23;19.20;77.10
3298;DHT22;1661;53.572;10.174;2023-08-17T01:46:51;19.20;76.90
3298;DHT22;1661;53.572;10.174;2023-08-17T01:49:18;19.20;77.20
3298;DHT22;1661;53.572;10.174;2023-08-17T01:51:45;19.20;77.20
3298;DHT22;1661;53.572;10.174;2023-08-17T01:54:12;19.20;77.10
3298;DHT22;1661;53.572;10.174;2023-08-17T01:56:39;19.20;76.90
3298;DHT22;1661;53.572;10.174;2023-08-17T01:59:07;19.30;77.00
3298;DHT22;1661;53.572;10.174;2023-08-17T02:01:33;19.30;76.80
3298;DHT22;1661;53.572;10.174;2023-08-17T02:04:00;19.30;76.80
3298;DHT22;1661;53.572;10.174;2023-08-17T02:06:27;19.40;76.40
3298;DHT22;1661;53.572;10.174;2023-08-17T02:08:54;19.40;76.40
3298;DHT22;1661;53.572;10.174;2023-08-17T02:11:21;19.40;76.30
3298;DHT22;1661;53.572;10.174;2023-08-17T02:13:48;19.40;76.50
3298;DHT22;1661;53.572;10.174;2023-08-17T02:16:16;19.40;76.60
3298;DHT22;1661;53.572;10.174;2023-08-17T02:18:43;19.30;76.50
3298;DHT22;1661;53.572;10.174;2023-08-17T02:21:10;19.30;77.00
3298;DHT22;1661;53.572;10.174;2023-08-17T02:23:36;19.30;76.90
3298;DHT22;1661;53.572;10.174;2023-08-17T02:26:03;19.30;76.90
3298;DHT22;1661;53.572;10.174;2023-08-17T02:28:30;19.30;77.00
3298;DHT22;1661;53.572;10.174;2023-08-17T02:30:57;19.30;76.90
3298;DHT22;1661;53.572;10.174;2023-08-17T02:33:26;19.30;77.30
3298;DHT22;1661;53.572;10.174;2023-08-17T02:35:52;19.20;77.40
3298;DHT22;1661;53.572;10.174;2023-08-17T02:38:19;19.20;77.30
3298;DHT22;1661;53.572;10.174;2023-08-17T02:40:48;19.20;77.40
3298;DHT22;1661;53.572;10.174;2023-08-17T02:43:15;19.20;77.30
3298;DHT22;1661;53.572;10.174;2023-08-17T02:45:41;19.10;77.70
3298;DHT22;1661;53.572;10.174;2023-08-17T02:48:08;19.10;77.80
3298;DHT22;1661;53.572;10.174;2023-08-17T02:50:36;19.20;77.80
3298;DHT22;1661;53.572;10.174;2023-08-17T02:53:03;19.20;78.00
3298;DHT22;1661;53.572;10.174;2023-08-17T02:55:30;19.20;77.70
3298;DHT22;1661;53.572;10.174;2023-08-17T02:57:57;19.10;78.20
3298;DHT22;1661;53.572;10.174;2023-08-17T03:00:24;19.00;78.30
3298;DHT22;1661;53.572;10.174;2023-08-17T03:02:50;19.00;78.10
3298;DHT22;1661;53.572;10.174;2023-08-17T03:05:19;19.00;78.10
3298;DHT22;1661;53.572;10.174;2023-08-17T03:07:47;19.10;78.20
3298;DHT22;1661;53.572;10.174;2023-08-17T03:10:14;19.10;78.20
3298;DHT22;1661;53.572;10.174;2023-08-17T03:12:41;19.00;78.90
3298;DHT22;1661;53.572;10.174;2023-08-17T03:15:08;19.00;79.00
3298;DHT22;1661;53.572;10.174;2023-08-17T03:17:35;19.00;78.80
3298;DHT22;1661;53.572;10.174;2023-08-17T03:20:03;19.00;78.90
3298;DHT22;1661;53.572;10.174;2023-08-17T03:22:31;19.00;78.70
3298;DHT22;1661;53.572;10.174;2023-08-17T03:25:00;19.00;79.00
3298;DHT22;1661;53.572;10.174;2023-08-17T03:27:27;19.10;78.40
3298;DHT22;1661;53.572;10.174;2023-08-17T03:29:54;19.10;78.80
3298;DHT22;1661;53.572;10.174;2023-08-17T03:32:21;19.10;79.00
3298;DHT22;1661;53.572;10.174;2023-08-17T03:37:16;19.10;78.60
3298;DHT22;1661;53.572;10.174;2023-08-17T03:39:42;19.10;78.60
3298;DHT22;1661;53.572;10.174;2023-08-17T03:42:10;19.10;79.10
3298;DHT22;1661;53.572;10.174;2023-08-17T03:44:37;19.10;78.90
3298;DHT22;1661;53.572;10.174;2023-08-17T03:47:04;19.10;79.10
3298;DHT22;1661;53.572;10.174;2023-08-17T03:49:31;19.10;79.20
3298;DHT22;1661;53.572;10.174;2023-08-17T03:51:58;19.10;79.30
3298;DHT22;1661;53.572;10.174;2023-08-17T03:54:24;19.10;79.20
3298;DHT22;1661;53.572;10.174;2023-08-17T03:56:51;19.10;79.10
3298;DHT22;1661;53.572;10.174;2023-08-17T03:59:19;19.10;79.20
3298;DHT22;1661;53.572;10.174;2023-08-17T04:01:46;19.10;79.00
3298;DHT22;1661;53.572;10.174;2023-08-17T04:04:13;19.10;79.10
3298;DHT22;1661;53.572;10.174;2023-08-17T04:06:40;19.10;78.90
3298;DHT22;1661;53.572;10.174;2023-08-17T04:09:06;19.10;79.20
3298;DHT22;1661;53.572;10.174;2023-08-17T04:11:35;19.10;79.80
3298;DHT22;1661;53.572;10.174;2023-08-17T04:14:02;19.10;79.90
3298;DHT22;1661;53.572;10.174;2023-08-17T04:16:31;19.10;80.30
3298;DHT22;1661;53.572;10.174;2023-08-17T04:18:58;19.10;80.10
3298;DHT22;1661;53.572;10.174;2023-08-17T04:21:25;19.10;80.10
3298;DHT22;1661;53.572;10.174;2023-08-17T04:23:52;19.10;79.60
3298;DHT22;1661;53.572;10.174;2023-08-17T04:26:18;19.10;79.90
3298;DHT22;1661;53.572;10.174;2023-08-17T04:28:46;19.10;79.80
3298;DHT22;1661;53.572;10.174;2023-08-17T04:31:12;19.10;80.30
3298;DHT22;1661;53.572;10.174;2023-08-17T04:33:41;19.10;80.30
3298;DHT22;1661;53.572;10.174;2023-08-17T04:36:08;19.20;80.10
3298;DHT22;1661;53.572;10.174;2023-08-17T04:38:34;19.20;80.10
3298;DHT22;1661;53.572;10.174;2023-08-17T04:41:01;19.20;79.80
3298;DHT22;1661;53.572;10.174;2023-08-17T04:43:28;19.30;79.80
3298;DHT22;1661;53.572;10.174;2023-08-17T04:45:55;19.30;79.70
3298;DHT22;1661;53.572;10.174;2023-08-17T04:48:22;19.30;79.40
3298;DHT22;1661;53.572;10.174;2023-08-17T04:50:51;19.40;79.30
3298;DHT22;1661;53.572;10.174;2023-08-17T04:53:18;19.40;79.20
3298;DHT22;1661;53.572;10.174;2023-08-17T04:55:44;19.40;79.10
3298;DHT22;1661;53.572;10.174;2023-08-17T04:58:11;19.40;79.60
3298;DHT22;1661;53.572;10.174;2023-08-17T05:00:38;19.40;79.50
3298;DHT22;1661;53.572;10.174;2023-08-17T05:03:05;19.40;79.50
3298;DHT22;1661;53.572;10.174;2023-08-17T05:05:32;19.40;79.50
3298;DHT22;1661;53.572;10.174;2023-08-17T05:08:00;19.50;79.60
3298;DHT22;1661;53.572;10.174;2023-08-17T05:10:27;19.50;79.90
3298;DHT22;1661;53.572;10.174;2023-08-17T05:12:54;19.50;79.90
3298;DHT22;1661;53.572;10.174;2023-08-17T05:15:21;19.50;79.70
3298;DHT22;1661;53.572;10.174;2023-08-17T05:17:48;19.50;79.70
3298;DHT22;1661;53.572;10.174;2023-08-17T05:20:14;19.50;79.60
3298;DHT22;1661;53.572;10.174;2023-08-17T05:22:41;19.50;79.50
3298;DHT22;1661;53.572;10.174;2023-08-17T05:25:09;19.60;79.40
3298;DHT22;1661;53.572;10.174;2023-08-17T05:27:36;19.60;79.40
3298;DHT22;1661;53.572;10.174;2023-08-17T05:30:04;19.60;79.80
3298;DHT22;1661;53.572;10.174;2023-08-17T05:32:31;19.70;80.00
3298;DHT22;1661;53.572;10.174;2023-08-17T05:34:58;19.70;80.30
3298;DHT22;1661;53.572;10.174;2023-08-17T05:37:24;19.70;80.50
3298;DHT22;1661;53.572;10.174;2023-08-17T05:39:51;19.60;80.70
3298;DHT22;1661;53.572;10.174;2023-08-17T05:42:19;19.60;81.20
3298;DHT22;1661;53.572;10.174;2023-08-17T05:44:46;19.60;82.00
3298;DHT22;1661;53.572;10.174;2023-08-17T05:47:13;19.60;82.60
3298;DHT22;1661;53.572;10.174;2023-08-17T05:49:41;19.60;82.90
3298;DHT22;1661;53.572;10.174;2023-08-17T05:52:07;19.60;82.80
3298;DHT22;1661;53.572;10.174;2023-08-17T05:54:34;19.60;83.00
3298;DHT22;1661;53.572;10.174;2023-08-17T05:57:02;19.60;83.00
3298;DHT22;1661;53.572;10.174;2023-08-17T05:59:30;19.60;83.60
3298;DHT22;1661;53.572;10.174;2023-08-17T06:01:56;19.60;83.80
3298;DHT22;1661;53.572;10.174;2023-08-17T06:04:23;19.60;83.90
3298;DHT22;1661;53.572;10.174;2023-08-17T06:06:51;19.60;84.00
3298;DHT22;1661;53.572;10.174;2023-08-17T06:09:17;19.60;84.60
3298;DHT22;1661;53.572;10.174;2023-08-17T06:11:44;19.50;84.90
3298;DHT22;1661;53.572;10.174;2023-08-17T06:14:11;19.50;84.60
3298;DHT22;1661;53.572;10.174;2023-08-17T06:16:39;19.40;84.80
3298;DHT22;1661;53.572;10.174;2023-08-17T06:19:06;19.40;85.00
3298;DHT22;1661;53.572;10.174;2023-08-17T06:21:33;19.40;84.90
3298;DHT22;1661;53.572;10.174;2023-08-17T06:23:59;19.30;85.10
3298;DHT22;1661;53.572;10.174;2023-08-17T06:26:26;19.30;85.00
3298;DHT22;1661;53.572;10.174;2023-08-17T06:28:53;19.30;85.50
3298;DHT22;1661;53.572;10.174;2023-08-17T06:31:20;19.30;85.60
3298;DHT22;1661;53.572;10.174;2023-08-17T06:33:49;19.30;85.50
3298;DHT22;1661;53.572;10.174;2023-08-17T06:36:16;19.20;85.60
3298;DHT22;1661;53.572;10.174;2023-08-17T06:38:43;19.20;85.90
3298;DHT22;1661;53.572;10.174;2023-08-17T06:41:10;19.20;85.90
3298;DHT22;1661;53.572;10.174;2023-08-17T06:43:36;19.10;85.40
3298;DHT22;1661;53.572;10.174;2023-08-17T06:46:03;19.10;85.30
3298;DHT22;1661;53.572;10.174;2023-08-17T06:48:30;19.10;85.40
3298;DHT22;1661;53.572;10.174;2023-08-17T06:50:59;19.10;85.30
3298;DHT22;1661;53.572;10.174;2023-08-17T06:53:26;19.10;85.30
3298;DHT22;1661;53.572;10.174;2023-08-17T06:55:53;19.00;85.20
3298;DHT22;1661;53.572;10.174;2023-08-17T06:58:27;19.00;84.80
3298;DHT22;1661;53.572;10.174;2023-08-17T07:00:59;19.00;85.10
3298;DHT22;1661;53.572;10.174;2023-08-17T07:03:33;19.00;85.40
3298;DHT22;1661;53.572;10.174;2023-08-17T07:06:05;19.00;85.20
3298;DHT22;1661;53.572;10.174;2023-08-17T07:08:32;19.00;85.20
3298;DHT22;1661;53.572;10.174;2023-08-17T07:10:59;19.00;85.30
3298;DHT22;1661;53.572;10.174;2023-08-17T07:13:26;19.00;85.30
3298;DHT22;1661;53.572;10.174;2023-08-17T07:15:53;19.00;85.40
3298;DHT22;1661;53.572;10.174;2023-08-17T07:18:19;19.00;85.40
3298;DHT22;1661;53.572;10.174;2023-08-17T07:20:46;19.00;85.60
3298;DHT22;1661;53.572;10.174;2023-08-17T07:23:16;19.00;85.10
3298;DHT22;1661;53.572;10.174;2023-08-17T07:25:42;18.90;84.80
3298;DHT22;1661;53.572;10.174;2023-08-17T07:28:09;18.90;84.90
3298;DHT22;1661;53.572;10.174;2023-08-17T07:30:36;18.90;84.50
3298;DHT22;1661;53.572;10.174;2023-08-17T07:33:03;18.90;84.80
3298;DHT22;1661;53.572;10.174;2023-08-17T07:35:30;18.90;84.10
3298;DHT22;1661;53.572;10.174;2023-08-17T07:37:57;18.90;84.30
3298;DHT22;1661;53.572;10.174;2023-08-17T07:40:25;18.90;84.50
3298;DHT22;1661;53.572;10.174;2023-08-17T07:42:52;18.90;84.50
3298;DHT22;1661;53.572;10.174;2023-08-17T07:45:18;18.90;84.70
3298;DHT22;1661;53.572;10.174;2023-08-17T07:47:45;18.90;84.70
3298;DHT22;1661;53.572;10.174;2023-08-17T07:50:12;18.90;84.80
3298;DHT22;1661;53.572;10.174;2023-08-17T07:52:39;19.00;84.90
3298;DHT22;1661;53.572;10.174;2023-08-17T07:55:06;19.00;85.10
3298;DHT22;1661;53.572;10.174;2023-08-17T07:57:34;19.00;85.30
3298;DHT22;1661;53.572;10.174;2023-08-17T08:00:01;19.00;85.10
3298;DHT22;1661;53.572;10.174;2023-08-17T08:02:27;19.00;84.40
3298;DHT22;1661;53.572;10.174;2023-08-17T08:04:54;18.80;84.60
3298;DHT22;1661;53.572;10.174;2023-08-17T08:07:21;18.80;84.90
3298;DHT22;1661;53.572;10.174;2023-08-17T08:09:48;18.70;84.70
3298;DHT22;1661;53.572;10.174;2023-08-17T08:12:14;18.70;85.30
3298;DHT22;1661;53.572;10.174;2023-08-17T08:14:42;18.70;85.10
3298;DHT22;1661;53.572;10.174;2023-08-17T08:17:09;18.70;85.00
3298;DHT22;1661;53.572;10.174;2023-08-17T08:19:36;18.70;84.80
3298;DHT22;1661;53.572;10.174;2023-08-17T08:22:03;18.70;84.50
3298;DHT22;1661;53.572;10.174;2023-08-17T08:24:30;18.70;83.80
3298;DHT22;1661;53.572;10.174;2023-08-17T08:27:00;18.60;83.60
3298;DHT22;1661;53.572;10.174;2023-08-17T08:29:27;18.70;83.40
3298;DHT22;1661;53.572;10.174;2023-08-17T08:31:55;18.70;83.50
3298;DHT22;1661;53.572;10.174;2023-08-17T08:34:23;18.60;83.30
3298;DHT22;1661;53.572;10.174;2023-08-17T08:36:49;18.60;83.20
3298;DHT22;1661;53.572;10.174;2023-08-17T08:39:16;18.60;83.50
3298;DHT22;1661;53.572;10.174;2023-08-17T08:41:44;18.70;83.50
3298;DHT22;1661;53.572;10.174;2023-08-17T08:44:10;18.70;83.20
3298;DHT22;1661;53.572;10.174;2023-08-17T08:46:40;18.70;83.00
3298;DHT22;1661;53.572;10.174;2023-08-17T08:49:10;18.80;83.70
3298;DHT22;1661;53.572;10.174;2023-08-17T08:51:41;18.80;83.80
3298;DHT22;1661;53.572;10.174;2023-08-17T08:54:12;18.80;83.80
3298;DHT22;1661;53.572;10.174;2023-08-17T08:56:43;18.90;84.20
3298;DHT22;1661;53.572;10.174;2023-08-17T08:59:11;18.90;84.10
3298;DHT22;1661;53.572;10.174;2023-08-17T09:01:38;18.90;84.20
3298;DHT22;1661;53.572;10.174;2023-08-17T09:04:06;19.00;84.40
3298;DHT22;1661;53.572;10.174;2023-08-17T09:06:34;19.10;84.70
3298;DHT22;1661;53.572;10.174;2023-08-17T09:09:02;19.10;84.30
3298;DHT22;1661;53.572;10.174;2023-08-17T09:11:29;19.10;84.20
3298;DHT22;1661;53.572;10.174;2023-08-17T09:13:56;19.10;83.70
3298;DHT22;1661;53.572;10.174;2023-08-17T09:16:23;19.20;83.30
3298;DHT22;1661;53.572;10.174;2023-08-17T09:18:52;19.10;84.10
3298;DHT22;1661;53.572;10.174;2023-08-17T09:21:20;19.10;84.00
3298;DHT22;1661;53.572;10.174;2023-08-17T09:23:52;19.10;83.50
3298;DHT22;1661;53.572;10.174;2023-08-17T09:26:20;19.10;83.70
3298;DHT22;1661;53.572;10.174;2023-08-17T09:28:48;19.10;83.70
3298;DHT22;1661;53.572;10.174;2023-08-17T09:31:15;19.10;83.80
3298;DHT22;1661;53.572;10.174;2023-08-17T09:33:43;19.10;83.20
3298;DHT22;1661;53.572;10.174;2023-08-17T09:36:10;19.10;83.40
3298;DHT22;1661;53.572;10.174;2023-08-17T09:38:37;19.10;83.20
3298;DHT22;1661;53.572;10.174;2023-08-17T09:41:06;19.10;83.20
3298;DHT22;1661;53.572;10.174;2023-08-17T09:43:33;19.10;83.40
3298;DHT22;1661;53.572;10.174;2023-08-17T09:46:00;19.10;82.70
3298;DHT22;1661;53.572;10.174;2023-08-17T09:48:28;19.10;82.20
3298;DHT22;1661;53.572;10.174;2023-08-17T09:50:57;19.10;82.50
3298;DHT22;1661;53.572;10.174;2023-08-17T09:53:25;19.10;82.90
3298;DHT22;1661;53.572;10.174;2023-08-17T09:55:53;19.00;82.50
3298;DHT22;1661;53.572;10.174;2023-08-17T09:58:22;19.00;82.70
3298;DHT22;1661;53.572;10.174;2023-08-17T10:00:49;18.90;82.00
3298;DHT22;1661;53.572;10.174;2023-08-17T10:03:18;18.80;82.10
3298;DHT22;1661;53.572;10.174;2023-08-17T10:05:48;18.80;82.70
3298;DHT22;1661;53.572;10.174;2023-08-17T10:08:19;18.80;82.50
3298;DHT22;1661;53.572;10.174;2023-08-17T10:10:47;18.70;82.70
3298;DHT22;1661;53.572;10.174;2023-08-17T10:13:20;18.70;83.20
3298;DHT22;1661;53.572;10.174;2023-08-17T10:15:59;18.70;83.10
3298;DHT22;1661;53.572;10.174;2023-08-17T10:18:33;18.70;82.90
3298;DHT22;1661;53.572;10.174;2023-08-17T10:21:05;18.60;83.00
3298;DHT22;1661;53.572;10.174;2023-08-17T10:23:32;18.70;83.40
3298;DHT22;1661;53.572;10.174;2023-08-17T10:26:01;18.70;84.00
3298;DHT22;1661;53.572;10.174;2023-08-17T10:28:28;18.70;84.30
3298;DHT22;1661;53.572;10.174;2023-08-17T10:30:59;18.70;84.20
3298;DHT22;1661;53.572;10.174;2023-08-17T10:33:26;18.70;84.30
3298;DHT22;1661;53.572;10.174;2023-08-17T10:35:54;18.70;84.50
3298;DHT22;1661;53.572;10.174;2023-08-17T10:38:21;18.60;84.30
3298;DHT22;1661;53.572;10.174;2023-08-17T10:41:08;18.60;84.50
3298;DHT22;1661;53.572;10.174;2023-08-17T10:43:53;18.60;84.80
3298;DHT22;1661;53.572;10.174;2023-08-17T10:46:21;18.60;85.00
3298;DHT22;1661;53.572;10.174;2023-08-17T10:48:48;18.60;84.70
3298;DHT22;1661;53.572;10.174;2023-08-17T10:51:15;18.60;84.70
3298;DHT22;1661;53.572;10.174;2023-08-17T10:53:43;18.60;85.40
3298;DHT22;1661;53.572;10.174;2023-08-17T10:56:12;18.50;84.80
3298;DHT22;1661;53.572;10.174;2023-08-17T10:58:39;18.50;84.50
3298;DHT22;1661;53.572;10.174;2023-08-17T11:01:06;18.50;84.10
3298;DHT22;1661;53.572;10.174;2023-08-17T11:03:35;18.40;84.30
3298;DHT22;1661;53.572;10.174;2023-08-17T11:06:15;18.40;84.40
3298;DHT22;1661;53.572;10.174;2023-08-17T11:08:53;18.40;84.70
3298;DHT22;1661;53.572;10.174;2023-08-17T11:11:21;18.40;84.80
3298;DHT22;1661;53.572;10.174;2023-08-17T11:13:49;18.40;85.00
3298;DHT22;1661;53.572;10.174;2023-08-17T11:16:17;18.40;84.90
3298;DHT22;1661;53.572;10.174;2023-08-17T11:18:46;18.30;84.70
3298;DHT22;1661;53.572;10.174;2023-08-17T11:21:14;18.30;84.90
3298;DHT22;1661;53.572;10.174;2023-08-17T11:23:41;18.30;84.70
3298;DHT22;1661;53.572;10.174;2023-08-17T11:26:08;18.30;85.00
3298;DHT22;1661;53.572;10.174;2023-08-17T11:28:35;18.40;85.00
3298;DHT22;1661;53.572;10.174;2023-08-17T11:31:04;18.40;85.20
3298;DHT22;1661;53.572;10.174;2023-08-17T11:33:32;18.50;85.80
3298;DHT22;1661;53.572;10.174;2023-08-17T11:36:02;18.60;86.40
3298;DHT22;1661;53.572;10.174;2023-08-17T11:38:31;18.60;86.70
3298;DHT22;1661;53.572;10.174;2023-08-17T11:40:58;18.60;86.90
3298;DHT22;1661;53.572;10.174;2023-08-17T11:43:26;18.70;87.20
3298;DHT22;1661;53.572;10.174;2023-08-17T11:45:54;18.70;87.40
3298;DHT22;1661;53.572;10.174;2023-08-17T11:48:22;18.60;87.30
3298;DHT22;1661;53.572;10.174;2023-08-17T11:50:50;18.50;88.10
3298;DHT22;1661;53.572;10.174;2023-08-17T11:53:18;18.40;89.00
3298;DHT22;1661;53.572;10.174;2023-08-17T11:55:45;18.50;89.50
3298;DHT22;1661;53.572;10.174;2023-08-17T11:58:12;18.60;89.40
3298;DHT22;1661;53.572;10.174;2023-08-17T12:00:41;18.60;89.30
3298;DHT22;1661;53.572;10.174;2023-08-17T12:03:13;18.60;89.00
3298;DHT22;1661;53.572;10.174;2023-08-17T12:05:41;18.70;88.80
3298;DHT22;1661;53.572;10.174;2023-08-17T12:08:08;18.80;88.50
3298;DHT22;1661;53.572;10.174;2023-08-17T12:10:38;18.80;88.50
3298;DHT22;1661;53.572;10.174;2023-08-17T12:13:05;18.90;88.30
3298;DHT22;1661;53.572;10.174;2023-08-17T12:15:32;18.80;87.90
3298;DHT22;1661;53.572;10.174;2023-08-17T12:17:59;18.70;88.80
3298;DHT22;1661;53.572;10.174;2023-08-17T12:20:27;18.70;89.00
3298;DHT22;1661;53.572;10.174;2023-08-17T12:22:54;18.80;89.00
3298;DHT22;1661;53.572;10.174;2023-08-17T12:25:21;19.00;88.80
3298;DHT22;1661;53.572;10.174;2023-08-17T12:27:50;19.00;89.00
3298;DHT22;1661;53.572;10.174;2023-08-17T12:30:28;19.10;88.90
3298;DHT22;1661;53.572;10.174;2023-08-17T12:32:57;19.20;88.40
3298;DHT22;1661;53.572;10.174;2023-08-17T12:35:24;19.30;88.40
3298;DHT22;1661;53.572;10.174;2023-08-17T12:37:52;19.40;87.90
3298;DHT22;1661;53.572;10.174;2023-08-17T12:40:19;19.50;88.00
3298;DHT22;1661;53.572;10.174;2023-08-17T12:42:46;19.60;88.00
3298;DHT22;1661;53.572;10.174;2023-08-17T12:45:14;19.70;87.70
3298;DHT22;1661;53.572;10.174;2023-08-17T12:47:42;19.70;87.60
3298;DHT22;1661;53.572;10.174;2023-08-17T12:50:09;19.80;87.80
3298;DHT22;1661;53.572;10.174;2023-08-17T12:52:36;19.90;87.20
3298;DHT22;1661;53.572;10.174;2023-08-17T12:55:03;19.90;86.90
3298;DHT22;1661;53.572;10.174;2023-08-17T12:57:30;19.80;86.60
3298;DHT22;1661;53.572;10.174;2023-08-17T12:59:57;19.70;87.00
3298;DHT22;1661;53.572;10.174;2023-08-17T13:02:25;19.60;83.90
3298;DHT22;1661;53.572;10.174;2023-08-17T13:04:52;19.50;85.00
3298;DHT22;1661;53.572;10.174;2023-08-17T13:07:19;19.50;85.20
3298;DHT22;1661;53.572;10.174;2023-08-17T13:09:45;19.40;85.10
3298;DHT22;1661;53.572;10.174;2023-08-17T13:12:12;19.30;84.20
3298;DHT22;1661;53.572;10.174;2023-08-17T13:14:39;19.30;84.00
3298;DHT22;1661;53.572;10.174;2023-08-17T13:17:06;19.20;84.80
3298;DHT22;1661;53.572;10.174;2023-08-17T13:19:34;19.10;84.40
3298;DHT22;1661;53.572;10.174;2023-08-17T13:22:01;19.10;84.40
3298;DHT22;1661;53.572;10.174;2023-08-17T13:24:29;19.10;84.50
3298;DHT22;1661;53.572;10.174;2023-08-17T13:26:56;19.10;85.20
3298;DHT22;1661;53.572;10.174;2023-08-17T13:29:23;19.20;85.50
3298;DHT22;1661;53.572;10.174;2023-08-17T13:31:50;19.40;85.60
3298;DHT22;1661;53.572;10.174;2023-08-17T13:34:16;19.40;85.40
3298;DHT22;1661;53.572;10.174;2023-08-17T13:36:44;19.50;85.40
3298;DHT22;1661;53.572;10.174;2023-08-17T13:39:11;19.60;85.10
3298;DHT22;1661;53.572;10.174;2023-08-17T13:41:38;19.60;85.30
3298;DHT22;1661;53.572;10.174;2023-08-17T13:44:06;19.70;85.80
3298;DHT22;1661;53.572;10.174;2023-08-17T13:46:33;19.70;85.60
3298;DHT22;1661;53.572;10.174;2023-08-17T13:48:59;19.70;85.30
3298;DHT22;1661;53.572;10.174;2023-08-17T13:51:26;19.80;85.20
3298;DHT22;1661;53.572;10.174;2023-08-17T13:53:54;19.80;85.10
3298;DHT22;1661;53.572;10.174;2023-08-17T13:56:21;19.90;84.90
3298;DHT22;1661;53.572;10.174;2023-08-17T13:58:48;19.90;84.90
3298;DHT22;1661;53.572;10.174;2023-08-17T14:01:15;20.00;84.90
3298;DHT22;1661;53.572;10.174;2023-08-17T14:03:42;20.00;84.40
3298;DHT22;1661;53.572;10.174;2023-08-17T14:06:09;20.00;84.70
3298;DHT22;1661;53.572;10.174;2023-08-17T14:08:36;19.90;84.90
3298;DHT22;1661;53.572;10.174;2023-08-17T14:11:04;19.90;84.80
3298;DHT22;1661;53.572;10.174;2023-08-17T14:13:32;19.90;84.80
3298;DHT22;1661;53.572;10.174;2023-08-17T14:15:58;19.90;84.50
3298;DHT22;1661;53.572;10.174;2023-08-17T14:18:25;19.80;84.60
3298;DHT22;1661;53.572;10.174;2023-08-17T14:20:52;19.80;83.70
3298;DHT22;1661;53.572;10.174;2023-08-17T14:23:19;19.80;83.70
3298;DHT22;1661;53.572;10.174;2023-08-17T14:25:45;19.80;84.70
3298;DHT22;1661;53.572;10.174;2023-08-17T14:28:14;19.80;84.80
3298;DHT22;1661;53.572;10.174;2023-08-17T14:30:40;19.80;85.10
3298;DHT22;1661;53.572;10.174;2023-08-17T14:33:08;19.80;85.30
3298;DHT22;1661;53.572;10.174;2023-08-17T14:35:35;19.80;84.10
3298;DHT22;1661;53.572;10.174;2023-08-17T14:38:01;19.70;83.70
3298;DHT22;1661;53.572;10.174;2023-08-17T14:40:28;19.50;82.40
3298;DHT22;1661;53.572;10.174;2023-08-17T14:42:55;19.50;83.00
3298;DHT22;1661;53.572;10.174;2023-08-17T14:45:23;19.40;83.20
3298;DHT22;1661;53.572;10.174;2023-08-17T14:47:50;19.40;83.20
3298;DHT22;1661;53.572;10.174;2023-08-17T14:50:17;19.40;83.20
3298;DHT22;1661;53.572;10.174;2023-08-17T14:52:43;19.30;82.80
3298;DHT22;1661;53.572;10.174;2023-08-17T14:55:12;19.30;82.60
3298;DHT22;1661;53.572;10.174;2023-08-17T14:57:38;19.30;82.30
3298;DHT22;1661;53.572;10.174;2023-08-17T15:00:07;19.20;81.50
3298;DHT22;1661;53.572;10.174;2023-08-17T15:02:36;19.30;82.00
3298;DHT22;1661;53.572;10.174;2023-08-17T15:05:03;19.30;81.80
3298;DHT22;1661;53.572;10.174;2023-08-17T15:07:29;19.20;81.40
3298;DHT22;1661;53.572;10.174;2023-08-17T15:09:56;19.20;82.20
3298;DHT22;1661;53.572;10.174;2023-08-17T15:12:23;19.20;82.60
3298;DHT22;1661;53.572;10.174;2023-08-17T15:14:50;19.10;81.80
3298;DHT22;1661;53.572;10.174;2023-08-17T15:17:16;19.10;81.30
3298;DHT22;1661;53.572;10.174;2023-08-17T15:19:45;18.90;80.40
3298;DHT22;1661;53.572;10.174;2023-08-17T15:22:11;18.80;80.50
3298;DHT22;1661;53.572;10.174;2023-08-17T15:24:38;18.70;80.50
3298;DHT22;1661;53.572;10.174;2023-08-17T15:27:05;18.70;80.80
3298;DHT22;1661;53.572;10.174;2023-08-17T15:29:31;18.70;81.30
3298;DHT22;1661;53.572;10.174;2023-08-17T15:31:58;18.70;81.30
3298;DHT22;1661;53.572;10.174;2023-08-17T15:34:25;18.70;81.20
3298;DHT22;1661;53.572;10.174;2023-08-17T15:36:53;18.70;80.50
3298;DHT22;1661;53.572;10.174;2023-08-17T15:39:21;18.60;80.70
3298;DHT22;1661;53.572;10.174;2023-08-17T15:41:48;18.50;80.60
3298;DHT22;1661;53.572;10.174;2023-08-17T15:44:15;18.40;81.20
3298;DHT22;1661;53.572;10.174;2023-08-17T15:46:41;18.50;81.80
3298;DHT22;1661;53.572;10.174;2023-08-17T15:49:08;18.50;80.90